Time;durP1;ratioP1;P1;durP2;ratioP2;P2;SDS_P1;SDS_P2;PMS_P1;PMS_P2;Temp;Humidity;BMP_temperature;BMP_pressure;BME280_temperature;BME280_humidity;BME280_pressure;Samples;Min_cycle;Max_cycle;Signal;HPM_P1;HPM_P2
2022/10/10 00:01:06;;;;;;;10.77;5.45;;;;;;;9.38;79.04;101404.38;5089490;28;20110;-85
2022/10/10 00:03:32;;;;;;;10.00;5.85;;;;;;;9.39;79.61;101397.34;5087832;28;20032;-86
2022/10/10 00:05:57;;;;;;;8.98;5.82;;;;;;;9.33;79.76;101401.19;5088291;28;20048;-85
2022/10/10 00:08:22;;;;;;;9.52;6.38;;;;;;;9.29;79.88;101397.06;5101010;28;20024;-85
2022/10/10 00:10:48;;;;;;;9.40;6.00;;;;;;;9.25;79.95;101392.94;5108050;28;20089;-85
2022/10/10 00:13:13;;;;;;;8.63;5.68;;;;;;;9.27;80.00;101392.84;5109672;28;20050;-87
2022/10/10 00:15:41;;;;;;;9.55;6.03;;;;;;;9.23;79.97;101389.56;5097803;28;20073;-86
2022/10/10 00:18:06;;;;;;;8.77;5.88;;;;;;;9.19;80.12;101388.03;5089680;28;20067;-86
2022/10/10 00:20:32;;;;;;;8.48;5.95;;;;;;;9.21;80.28;101391.44;5099660;28;20020;-86
2022/10/10 00:22:57;;;;;;;6.57;5.78;;;;;;;9.17;79.73;101384.66;5104878;28;20020;-85
2022/10/10 00:25:23;;;;;;;8.80;6.53;;;;;;;9.15;80.49;101380.44;5102235;28;20076;-86
2022/10/10 00:27:48;;;;;;;9.98;6.35;;;;;;;9.15;80.33;101388.31;5112447;28;20015;-86
2022/10/10 00:30:14;;;;;;;11.70;6.20;;;;;;;9.12;80.40;101381.47;5112346;28;20035;-87
2022/10/10 00:32:39;;;;;;;11.00;6.20;;;;;;;9.12;80.65;101381.47;5100620;28;20466;-86
2022/10/10 00:35:05;;;;;;;10.45;6.35;;;;;;;9.09;80.73;101386.88;5091396;28;20035;-86
2022/10/10 00:37:30;;;;;;;10.30;5.78;;;;;;;9.06;80.64;101379.19;5091860;28;20077;-86
2022/10/10 00:39:56;;;;;;;10.40;6.50;;;;;;;9.07;81.14;101378.25;5102981;28;20035;-86
2022/10/10 00:42:21;;;;;;;10.35;6.40;;;;;;;9.05;81.26;101377.50;5111462;28;20476;-86
2022/10/10 00:45:18;;;;;;;8.65;6.40;;;;;;;9.07;81.07;101378.25;5111246;28;20047;-86
2022/10/10 00:47:44;;;;;;;12.18;6.60;;;;;;;9.00;81.81;101371.69;5112645;28;20020;-86
2022/10/10 00:50:10;;;;;;;10.00;6.80;;;;;;;8.98;81.69;101374.41;5107276;28;20019;-86
2022/10/10 00:52:35;;;;;;;10.88;6.30;;;;;;;8.95;81.86;101369.34;5091951;28;20381;-86
2022/10/10 00:55:00;;;;;;;11.32;7.05;;;;;;;8.94;82.35;101370.28;5090983;28;20051;-87
2022/10/10 00:57:26;;;;;;;8.60;6.30;;;;;;;8.93;82.20;101370.38;5091000;28;20032;-86
2022/10/10 00:59:52;;;;;;;7.72;6.35;;;;;;;8.93;82.33;101370.38;5090840;28;20528;-87
2022/10/10 01:02:18;;;;;;;10.35;6.40;;;;;;;8.90;82.84;101370.56;5092114;28;20024;-86
2022/10/10 01:04:44;;;;;;;7.55;5.93;;;;;;;8.88;83.20;101361.91;5091587;28;20020;-86
2022/10/10 01:07:17;;;;;;;8.68;5.90;;;;;;;8.86;83.13;101361.16;5097807;28;20042;-87
2022/10/10 01:09:45;;;;;;;10.45;7.03;;;;;;;8.78;83.19;101354.56;5112019;28;20032;-87
2022/10/10 01:12:48;;;;;;;8.68;6.50;;;;;;;8.81;83.15;101356.19;5111476;28;20166;-86
2022/10/10 01:15:26;;;;;;;;;;;;;;;8.88;81.66;101348.81;5111463;28;20024;-87
2022/10/10 01:18:01;;;;;;;10.98;6.50;;;;;;;8.73;83.34;101348.75;5111297;28;20342;-86
2022/10/10 01:20:48;;;;;;;9.55;6.30;;;;;;;8.70;83.48;101353.31;5111498;28;20105;-86
2022/10/10 01:23:47;;;;;;;8.63;6.72;;;;;;;8.70;83.23;101351.53;5111597;28;20032;-86
2022/10/10 01:26:50;;;;;;;10.82;6.97;;;;;;;8.68;83.49;101350.78;5108094;28;20543;-86
2022/10/10 01:29:28;;;;;;;9.55;6.63;;;;;;;8.68;83.97;101356.03;5110121;28;20938;-86
2022/10/10 01:32:02;;;;;;;11.00;6.55;;;;;;;8.60;83.80;101350.41;5112025;28;20022;-85
2022/10/10 01:34:39;;;;;;;10.32;6.50;;;;;;;8.61;84.63;101349.47;5092980;28;20394;-85
2022/10/10 01:37:16;;;;;;;13.05;7.53;;;;;;;8.60;84.52;101346.94;5090164;28;20032;-85
2022/10/10 01:39:45;;;;;;;13.30;7.00;;;;;;;8.61;85.05;101348.63;5090278;28;20019;-86
2022/10/10 01:42:27;;;;;;;11.35;6.82;;;;;;;8.58;85.23;101343.56;5088675;28;20020;-86
2022/10/10 01:44:53;;;;;;;9.40;6.73;;;;;;;8.55;85.29;101339.34;5108021;28;20062;-85
2022/10/10 01:47:20;;;;;;;10.27;6.97;;;;;;;8.53;85.44;101333.34;5110476;27;20027;-85
2022/10/10 01:49:50;;;;;;;10.68;6.97;;;;;;;8.55;85.65;101341.09;5101013;27;20369;-86
2022/10/10 01:52:24;;;;;;;10.02;6.32;;;;;;;8.48;85.43;101341.47;5089389;28;20035;-86
2022/10/10 01:54:52;;;;;;;10.65;6.65;;;;;;;8.42;85.48;101333.09;5090849;28;20054;-85
2022/10/10 01:57:38;;;;;;;8.77;7.05;;;;;;;8.44;86.04;101336.50;5089168;28;20487;-86
2022/10/10 02:00:09;;;;;;;12.07;6.75;;;;;;;8.39;85.70;101330.63;5105273;28;20066;-86
2022/10/10 02:02:41;;;;;;;11.60;6.20;;;;;;;8.38;85.79;101328.94;5109850;28;20024;-85
2022/10/10 02:05:15;;;;;;;12.00;7.03;;;;;;;8.35;85.95;101322.09;5110598;28;20024;-86
2022/10/10 02:07:48;;;;;;;9.02;6.57;;;;;;;8.33;86.12;101320.47;5110239;28;20024;-86
2022/10/10 02:10:20;;;;;;;12.02;6.72;;;;;;;8.30;86.01;101313.63;5109303;28;20100;-86
2022/10/10 02:12:47;;;;;;;9.57;6.60;;;;;;;8.30;86.34;101313.63;5110813;28;20447;-86
2022/10/10 02:15:16;;;;;;;11.55;6.35;;;;;;;8.31;86.55;101311.84;5108320;28;20468;-86
2022/10/10 02:17:45;;;;;;;10.00;6.53;;;;;;;8.27;86.22;101315.56;5109220;28;20059;-86
2022/10/10 02:20:12;;;;;;;13.63;6.70;;;;;;;8.25;86.65;101307.81;5101214;28;20038;-87
2022/10/10 02:22:41;;;;;;;11.80;6.80;;;;;;;8.23;86.68;101314.91;5088940;28;20016;-87
2022/10/10 02:25:07;;;;;;;9.43;6.72;;;;;;;8.22;87.05;101309.75;5101778;28;20031;-87
2022/10/10 02:27:43;;;;;;;10.18;6.22;;;;;;;8.22;87.16;101315.84;5102710;28;20093;-86
2022/10/10 02:30:10;;;;;;;10.82;7.22;;;;;;;8.20;87.04;101304.59;5087853;28;20024;-87
2022/10/10 02:32:46;;;;;;;12.07;6.70;;;;;;;8.18;87.34;101306.47;5089106;28;20055;-86
2022/10/10 02:35:19;;;;;;;9.90;6.80;;;;;;;8.17;87.51;101303.00;5106498;28;20089;-87
2022/10/10 02:37:47;;;;;;;13.25;6.78;;;;;;;8.14;87.67;101297.94;5109942;28;20024;-86
2022/10/10 02:40:19;;;;;;;10.98;7.07;;;;;;;8.08;87.31;101302.69;5109734;28;20023;-86
2022/10/10 02:42:46;;;;;;;12.50;6.82;;;;;;;8.08;87.67;101298.28;5108692;28;20081;-86
2022/10/10 02:45:12;;;;;;;15.65;6.50;;;;;;;8.07;88.02;101296.59;5107793;28;20127;-86
2022/10/10 02:47:37;;;;;;;10.68;6.70;;;;;;;8.09;87.94;101288.66;5109617;28;20023;-86
2022/10/10 02:50:03;;;;;;;13.90;6.78;;;;;;;8.07;87.90;101286.09;5099204;28;20089;-87
2022/10/10 02:52:29;;;;;;;10.18;7.15;;;;;;;8.09;88.42;101279.00;5088089;28;20023;-88
2022/10/10 02:54:54;;;;;;;9.45;6.55;;;;;;;8.08;88.27;101277.31;5089029;28;20131;-88
2022/10/10 02:57:19;;;;;;;10.38;6.60;;;;;;;8.06;88.49;101283.56;5090075;28;20072;-87
2022/10/10 02:59:45;;;;;;;9.50;6.35;;;;;;;8.05;88.53;101274.88;5088067;28;20118;-87
2022/10/10 03:02:10;;;;;;;11.82;6.38;;;;;;;8.06;88.41;101278.34;5105029;28;20038;-88
2022/10/10 03:04:38;;;;;;;10.20;6.45;;;;;;;8.05;88.35;101272.25;5110782;28;20108;-87
2022/10/10 03:07:04;;;;;;;10.10;6.63;;;;;;;8.05;88.94;101272.25;5110590;28;20100;-87
2022/10/10 03:09:29;;;;;;;8.35;6.65;;;;;;;8.03;88.89;101273.28;5108865;28;20065;-88
2022/10/10 03:11:58;;;;;;;9.25;6.50;;;;;;;8.03;88.61;101265.41;5109628;28;20197;-88
2022/10/10 03:14:23;;;;;;;10.52;7.07;;;;;;;8.04;89.11;101270.56;5107204;28;20028;-88
2022/10/10 03:16:48;;;;;;;7.97;6.57;;;;;;;8.03;89.06;101268.88;5107559;28;20034;-88
2022/10/10 03:19:14;;;;;;;9.32;6.20;;;;;;;8.00;89.58;101258.53;5093391;28;20432;-87
2022/10/10 03:21:39;;;;;;;10.93;6.70;;;;;;;8.00;89.43;101262.94;5108738;28;20030;-87
2022/10/10 03:24:05;;;;;;;9.95;6.78;;;;;;;7.99;89.70;101261.25;5109180;28;20376;-88
2022/10/10 03:26:31;;;;;;;11.48;6.22;;;;;;;7.99;89.88;101256.00;5108024;28;20054;-88
2022/10/10 03:28:56;;;;;;;10.65;6.68;;;;;;;7.95;89.98;101265.81;5110462;28;20031;-88
2022/10/10 03:31:21;;;;;;;10.27;6.50;;;;;;;7.98;90.25;101255.16;5104433;28;20035;-87
2022/10/10 03:33:47;;;;;;;9.45;6.18;;;;;;;7.97;90.01;101257.88;5090737;28;20181;-88
2022/10/10 03:36:12;;;;;;;7.28;6.07;;;;;;;7.97;90.58;101268.34;5097729;28;20451;-88
2022/10/10 03:38:39;;;;;;;10.10;6.57;;;;;;;7.97;90.35;101269.19;5110206;28;20023;-88
2022/10/10 03:41:04;;;;;;;8.27;6.13;;;;;;;7.96;90.59;101272.75;5107572;28;20092;-88
2022/10/10 03:43:29;;;;;;;8.88;6.05;;;;;;;7.93;90.69;101267.69;5109478;28;20063;-88
2022/10/10 03:45:57;;;;;;;7.78;6.15;;;;;;;7.96;91.14;101270.13;5109793;28;20500;-87
2022/10/10 03:48:23;;;;;;;9.73;6.40;;;;;;;7.94;91.43;101269.38;5107176;28;20023;-88
2022/10/10 03:50:48;;;;;;;8.82;6.35;;;;;;;7.89;91.39;101271.41;5108862;28;20069;-88
2022/10/10 03:53:14;;;;;;;11.65;6.18;;;;;;;7.89;91.47;101271.41;5096686;28;20028;-88
2022/10/10 03:55:40;;;;;;;8.40;5.82;;;;;;;7.89;91.47;101271.41;5088759;28;20448;-89
2022/10/10 03:58:12;;;;;;;6.93;5.82;;;;;;;7.88;91.71;101274.97;5092945;28;20231;-88
2022/10/10 04:00:38;;;;;;;8.68;6.03;;;;;;;7.92;92.08;101278.25;5094070;28;20031;-86
2022/10/10 04:03:05;;;;;;;10.52;5.95;;;;;;;7.88;91.99;101272.34;5093119;28;20037;-87
2022/10/10 04:05:35;;;;;;;13.00;6.22;;;;;;;7.89;92.45;101271.41;5104642;28;20063;-86
2022/10/10 04:08:01;;;;;;;8.63;6.28;;;;;;;7.89;92.42;101265.31;5097969;28;20028;-87
2022/10/10 04:10:27;;;;;;;7.60;5.85;;;;;;;7.88;92.45;101261.00;5110353;28;20031;-87
2022/10/10 04:12:52;;;;;;;7.72;5.82;;;;;;;7.89;92.31;101267.94;5110882;28;20536;-86
2022/10/10 04:15:17;;;;;;;9.60;5.93;;;;;;;7.91;92.65;101264.31;5096819;28;20224;-87
2022/10/10 04:17:43;;;;;;;9.88;6.63;;;;;;;7.88;92.93;101259.25;5093639;28;20520;-87
2022/10/10 04:20:08;;;;;;;10.55;6.30;;;;;;;7.88;92.52;101266.25;5094726;28;20081;-87
2022/10/10 04:22:34;;;;;;;11.23;6.20;;;;;;;7.88;92.68;101268.88;5092138;28;20048;-87
2022/10/10 04:24:59;;;;;;;8.95;6.10;;;;;;;7.83;93.13;101263.91;5102816;28;20035;-87
2022/10/10 04:27:24;;;;;;;10.20;5.95;;;;;;;7.79;93.29;101265.84;5105757;28;20388;-87
2022/10/10 04:29:50;;;;;;;9.63;6.55;;;;;;;7.79;92.75;101265.00;5107054;28;20031;-87
2022/10/10 04:32:15;;;;;;;9.40;6.13;;;;;;;7.82;93.21;101265.66;5093027;28;20032;-87
2022/10/10 04:34:40;;;;;;;11.27;6.00;;;;;;;7.80;93.60;101257.06;5092507;28;20028;-87
2022/10/10 04:37:15;;;;;;;10.20;5.97;;;;;;;7.78;93.43;101258.06;5091367;28;20395;-87
2022/10/10 04:39:40;;;;;;;10.82;5.93;;;;;;;7.73;93.16;101265.34;5091623;28;20076;-87
2022/10/10 04:42:06;;;;;;;10.75;6.10;;;;;;;7.73;93.47;101266.19;5092414;28;20024;-87
2022/10/10 04:44:31;;;;;;;10.85;6.25;;;;;;;7.75;93.91;101263.47;5109129;28;20084;-88
2022/10/10 04:46:57;;;;;;;11.90;6.32;;;;;;;7.70;93.57;101260.28;5093330;28;20509;-88
2022/10/10 04:49:22;;;;;;;10.30;6.22;;;;;;;7.70;94.17;101255.88;5091219;28;20024;-88
2022/10/10 04:51:47;;;;;;;8.50;6.57;;;;;;;7.67;94.03;101260.44;5095190;28;20491;-88
2022/10/10 04:54:13;;;;;;;11.68;6.50;;;;;;;7.68;94.43;101264.75;5100681;28;20028;-88
2022/10/10 04:56:41;;;;;;;13.05;6.20;;;;;;;7.65;94.23;101262.31;5112755;28;20148;-87
2022/10/10 04:59:12;;;;;;;12.07;6.22;;;;;;;7.59;94.51;101263.47;5110851;28;20428;-88
2022/10/10 05:01:37;;;;;;;10.77;6.10;;;;;;;7.62;94.44;101259.88;5108164;28;20149;-88
2022/10/10 05:04:03;;;;;;;10.85;6.43;;;;;;;7.60;94.95;101264.31;5109070;28;20114;-88
2022/10/10 05:06:29;;;;;;;8.20;6.13;;;;;;;7.58;95.14;101250.44;5091523;28;20016;-88
2022/10/10 05:08:54;;;;;;;15.98;6.70;;;;;;;7.50;95.39;101256.97;5091432;28;20031;-88
2022/10/10 05:11:20;;;;;;;9.02;6.00;;;;;;;7.53;95.59;101248.94;5090030;28;20031;-88
2022/10/10 05:13:45;;;;;;;10.43;6.35;;;;;;;7.52;95.44;101249.03;5096618;28;20023;-89
2022/10/10 05:16:11;;;;;;;13.25;6.50;;;;;;;7.48;95.34;101248.34;5109461;28;20024;-88
2022/10/10 05:18:39;;;;;;;10.93;6.60;;;;;;;7.48;95.74;101250.97;5111082;28;20039;-89
2022/10/10 05:21:06;;;;;;;8.02;5.85;;;;;;;7.46;95.56;101247.59;5097199;28;20020;-89
2022/10/10 05:23:32;;;;;;;10.55;6.65;;;;;;;7.45;96.18;101247.66;5092836;28;20032;-89
2022/10/10 05:25:57;;;;;;;12.43;6.00;;;;;;;7.45;96.03;101251.13;5097512;28;20384;-88
2022/10/10 05:28:23;;;;;;;12.32;6.50;;;;;;;7.47;96.18;101254.50;5112002;27;20024;-89
2022/10/10 05:30:50;;;;;;;10.35;6.18;;;;;;;7.44;95.98;101256.44;5110715;28;20024;-89
2022/10/10 05:33:15;;;;;;;12.75;6.50;;;;;;;7.42;96.07;101251.31;5105740;28;20441;-89
2022/10/10 05:35:40;;;;;;;12.77;6.45;;;;;;;7.43;96.73;101253.00;5097915;28;20448;-88
2022/10/10 05:38:12;;;;;;;11.25;6.45;;;;;;;7.44;96.83;101262.53;5091173;28;20028;-87
2022/10/10 05:40:41;;;;;;;8.77;6.03;;;;;;;7.43;96.93;101253.00;5090874;28;20020;-88
2022/10/10 05:43:12;;;;;;;9.15;6.00;;;;;;;7.42;97.59;101256.53;5111130;28;20043;-87
2022/10/10 05:45:38;;;;;;;8.05;6.25;;;;;;;7.40;97.19;101260.16;5109489;28;20048;-88
2022/10/10 05:48:03;;;;;;;10.63;6.47;;;;;;;7.38;97.23;101255.03;5093797;28;20494;-89
2022/10/10 05:50:33;;;;;;;13.57;6.82;;;;;;;7.37;97.88;101263.81;5092470;28;20514;-89
2022/10/10 05:52:58;;;;;;;10.68;6.22;;;;;;;7.41;97.79;101254.84;5105505;28;20046;-88
2022/10/10 05:55:24;;;;;;;14.05;6.68;;;;;;;7.39;98.16;101256.72;5091681;28;20488;-88
2022/10/10 05:57:49;;;;;;;11.10;6.78;;;;;;;7.38;98.63;101260.25;5111355;28;20027;-89
2022/10/10 06:00:15;;;;;;;12.43;6.85;;;;;;;7.42;98.73;101260.94;5108971;28;20078;-88
2022/10/10 06:02:40;;;;;;;10.75;6.93;;;;;;;7.43;98.74;101262.63;5111492;28;20038;-89
2022/10/10 06:05:09;;;;;;;11.90;6.63;;;;;;;7.42;98.91;101256.53;5094387;28;20495;-89
2022/10/10 06:07:35;;;;;;;8.73;6.43;;;;;;;7.44;98.84;101266.94;5100950;28;20032;-89
2022/10/10 06:10:00;;;;;;;11.98;6.70;;;;;;;7.43;99.13;101266.09;5109371;28;20076;-89
2022/10/10 06:12:28;;;;;;;10.02;6.55;;;;;;;7.49;99.55;101262.28;5105134;28;20502;-88
2022/10/10 06:14:54;;;;;;;9.65;6.50;;;;;;;7.49;99.44;101263.13;5098353;28;20059;-89
2022/10/10 06:17:20;;;;;;;11.13;6.93;;;;;;;7.51;99.90;101261.28;5103440;28;20088;-90
2022/10/10 06:19:45;;;;;;;16.25;6.80;;;;;;;7.54;99.82;101255.00;5105584;28;20023;-89
2022/10/10 06:22:11;;;;;;;13.90;7.25;;;;;;;7.58;99.85;101272.25;5093966;28;20046;-90
2022/10/10 06:24:39;;;;;;;11.05;6.97;;;;;;;7.57;100.00;101267.09;5105289;28;20484;-90
2022/10/10 06:27:04;;;;;;;11.60;7.28;;;;;;;7.62;100.00;101265.09;5096241;28;20438;-90
2022/10/10 06:29:30;;;;;;;10.38;6.63;;;;;;;7.63;99.94;101265.00;5096152;28;20019;-90
2022/10/10 06:31:59;;;;;;;12.10;7.25;;;;;;;7.69;100.00;101269.06;5102305;28;20508;-90
2022/10/10 06:34:24;;;;;;;11.13;7.22;;;;;;;7.69;99.90;101267.28;5104637;28;20058;-90
2022/10/10 06:36:50;;;;;;;12.45;7.00;;;;;;;7.72;100.00;101274.97;5093354;28;20066;-92
2022/10/10 06:39:16;;;;;;;16.40;7.78;;;;;;;7.75;100.00;101273.97;5102973;28;20031;-92
2022/10/10 06:41:41;;;;;;;14.80;8.10;;;;;;;7.78;100.00;101273.78;5106472;28;20094;-95
2022/10/10 06:44:07;;;;;;;13.32;7.95;;;;;;;7.81;100.00;101279.69;5095801;28;20056;-89
2022/10/10 06:46:36;;;;;;;13.80;8.35;;;;;;;7.84;100.00;101283.91;5090998;28;20039;-88
2022/10/10 06:49:05;;;;;;;13.95;7.95;;;;;;;7.88;100.00;101285.44;5103982;28;20020;-87
2022/10/10 06:51:31;;;;;;;13.50;7.80;;;;;;;7.92;100.00;101283.47;5100926;28;20035;-87
2022/10/10 06:53:57;;;;;;;12.75;7.80;;;;;;;7.96;100.00;101293.72;5098667;28;20113;-87
2022/10/10 06:56:23;;;;;;;15.43;7.97;;;;;;;8.00;100.00;101287.34;5104106;28;20042;-87
2022/10/10 06:58:49;;;;;;;13.75;8.52;;;;;;;8.04;100.00;101288.91;5091824;28;20027;-89
2022/10/10 07:01:17;;;;;;;15.23;8.40;;;;;;;8.12;100.00;101293.72;5109440;28;20034;-86
2022/10/10 07:03:42;;;;;;;14.25;8.27;;;;;;;8.18;100.00;101291.59;5105019;28;20479;-86
2022/10/10 07:06:13;;;;;;;11.75;8.57;;;;;;;8.30;100.00;101290.03;5092008;28;20034;-86
2022/10/10 07:08:39;;;;;;;12.43;8.48;;;;;;;8.38;100.00;101287.84;5091601;28;20032;-86
2022/10/10 07:11:06;;;;;;;16.30;8.60;;;;;;;8.46;100.00;101298.75;5108280;28;20776;-88
2022/10/10 07:13:32;;;;;;;20.23;8.85;;;;;;;8.58;100.00;101298.97;5107969;28;20141;-87
2022/10/10 07:15:58;;;;;;;16.10;9.20;;;;;;;8.68;100.00;101303.56;5103776;28;20019;-87
2022/10/10 07:18:23;;;;;;;16.42;8.80;;;;;;;8.78;100.00;101299.47;5101140;28;20028;-87
2022/10/10 07:20:48;;;;;;;15.52;10.05;;;;;;;8.92;100.00;101305.69;5102324;28;20019;-87
2022/10/10 07:23:14;;;;;;;15.98;8.95;;;;;;;9.02;99.79;101306.81;5099400;28;20039;-87
2022/10/10 07:25:41;;;;;;;14.52;8.90;;;;;;;9.12;99.13;101302.69;5108634;28;20560;-86
2022/10/10 07:28:08;;;;;;;15.63;8.85;;;;;;;9.22;99.24;101303.84;5091790;28;20028;-87
2022/10/10 07:30:40;;;;;;;17.88;9.35;;;;;;;9.30;98.83;101298.97;5105664;28;20028;-87
2022/10/10 07:33:06;;;;;;;17.73;9.00;;;;;;;9.44;98.41;101298.13;5090402;28;20073;-87
2022/10/10 07:35:31;;;;;;;19.02;9.07;;;;;;;9.56;98.17;101305.22;5104850;28;20028;-89
2022/10/10 07:37:57;;;;;;;15.93;8.57;;;;;;;9.66;98.04;101303.72;5114044;28;20041;-94
2022/10/10 07:40:22;;;;;;;14.00;8.50;;;;;;;9.72;97.66;101305.97;5095499;28;20056;-94
2022/10/10 07:42:48;;;;;;;16.20;8.75;;;;;;;9.87;97.16;101306.78;5107406;28;20016;-93
2022/10/10 07:45:13;;;;;;;16.83;8.40;;;;;;;9.97;96.70;101313.13;5103977;28;20459;-95
2022/10/10 07:47:39;;;;;;;13.93;8.45;;;;;;;10.10;96.63;101309.72;5098815;28;20027;-94
2022/10/10 07:50:06;;;;;;;13.52;7.47;;;;;;;10.20;96.79;101316.06;5107176;28;20395;-93
2022/10/10 07:52:33;;;;;;;17.20;8.70;;;;;;;10.32;96.14;101323.19;5096442;28;20446;-93
2022/10/10 07:54:58;;;;;;;11.93;7.80;;;;;;;10.44;95.20;101322.41;5105440;28;20373;-93
2022/10/10 07:57:23;;;;;;;14.15;7.88;;;;;;;10.54;95.00;101323.47;5104199;28;20030;-92
2022/10/10 07:59:49;;;;;;;13.73;7.53;;;;;;;10.67;94.32;101328.75;5097550;28;20039;-92
2022/10/10 08:02:14;;;;;;;13.10;7.43;;;;;;;10.80;93.87;101331.41;5107650;28;20489;-93
2022/10/10 08:04:39;;;;;;;15.63;7.40;;;;;;;10.94;93.70;101331.34;5106797;28;20072;-93
2022/10/10 08:07:09;;;;;;;16.15;7.82;;;;;;;11.08;93.45;101330.41;5112159;28;20098;-92
2022/10/10 08:09:35;;;;;;;12.50;7.78;;;;;;;11.22;92.79;101333.78;5109755;28;20035;-92
2022/10/10 08:12:00;;;;;;;10.55;7.03;;;;;;;11.37;92.16;101336.31;5113266;28;20012;-92
2022/10/10 08:14:25;;;;;;;10.15;6.63;;;;;;;11.47;91.92;101327.66;5111857;28;20200;-92
2022/10/10 08:16:51;;;;;;;9.30;6.80;;;;;;;11.66;90.63;101335.13;5113863;28;20051;-91
2022/10/10 08:19:16;;;;;;;10.57;6.35;;;;;;;11.82;90.51;101325.19;5106873;28;20027;-91
2022/10/10 08:21:41;;;;;;;9.32;5.88;;;;;;;12.01;89.72;101329.13;5100241;28;20035;-93
2022/10/10 08:24:07;;;;;;;15.10;6.18;;;;;;;12.13;88.64;101328.25;5112380;28;20081;-92
2022/10/10 08:26:32;;;;;;;11.77;5.85;;;;;;;12.23;88.20;101327.47;5112964;28;20054;-92
2022/10/10 08:28:58;;;;;;;9.77;5.85;;;;;;;12.34;88.06;101331.94;5101912;28;20067;-93
2022/10/10 08:31:23;;;;;;;9.23;6.00;;;;;;;12.37;87.58;101328.25;5106476;28;20068;-91
2022/10/10 08:33:50;;;;;;;11.50;5.40;;;;;;;12.45;88.14;101341.75;5096423;28;20072;-91
2022/10/10 08:36:20;;;;;;;10.52;6.00;;;;;;;12.61;87.30;101336.16;5106311;28;20024;-92
2022/10/10 08:38:46;;;;;;;13.95;5.95;;;;;;;12.73;86.96;101338.72;5106777;28;20051;-92
2022/10/10 08:41:30;;;;;;;11.93;6.20;;;;;;;12.96;85.94;101344.91;5098515;28;20024;-91
2022/10/10 08:44:10;;;;;;;11.63;5.80;;;;;;;13.21;85.31;101337.75;5107230;28;20548;-94
2022/10/10 08:46:41;;;;;;;12.80;6.00;;;;;;;13.41;84.68;101329.16;5108044;28;20138;-91
2022/10/10 08:49:19;;;;;;;11.50;5.60;;;;;;;13.54;83.57;101334.31;5112765;28;20035;-89
2022/10/10 08:51:51;;;;;;;10.80;5.38;;;;;;;13.66;82.18;101338.66;5111746;28;20028;-92
2022/10/10 08:54:18;;;;;;;11.35;5.90;;;;;;;13.90;81.31;101336.69;5112054;28;20043;-91
2022/10/10 08:56:44;;;;;;;11.18;5.20;;;;;;;14.17;81.70;101328.31;5112293;27;20030;-89
2022/10/10 08:59:23;;;;;;;11.10;5.00;;;;;;;14.41;80.55;101326.34;5112688;28;20019;-89
2022/10/10 09:01:54;;;;;;;10.40;5.47;;;;;;;14.59;78.19;101328.44;5112493;28;20024;-89
2022/10/10 09:07:05;;;;;;;10.63;4.97;;;;;;;14.91;76.72;101333.69;5037560;22;20065;-95
2022/10/10 09:09:51;;;;;;;8.57;5.40;;;;;;;15.01;77.18;101324.84;5032998;28;20393;-94
2022/10/10 09:12:28;;;;;;;11.02;4.78;;;;;;;15.00;75.35;101333.75;5001456;28;20079;-94
2022/10/10 09:15:02;;;;;;;9.55;4.85;;;;;;;15.01;75.86;101340.75;5008039;28;20025;-94
2022/10/10 09:17:46;;;;;;;9.20;4.75;;;;;;;15.01;75.60;101340.75;5031499;28;20039;-93
2022/10/10 09:20:29;;;;;;;8.90;4.75;;;;;;;15.07;77.34;101336.72;5030361;28;20021;-93
2022/10/10 09:23:07;;;;;;;13.07;5.60;;;;;;;15.10;76.33;101343.56;5016118;28;20667;-93
2022/10/10 09:25:39;;;;;;;8.63;4.75;;;;;;;15.22;75.43;101347.84;5014539;28;20572;-94
2022/10/10 09:28:39;;;;;;;11.73;5.05;;;;;;;15.29;76.67;101351.66;5014650;28;20366;-94
2022/10/10 09:31:13;;;;;;;9.32;4.88;;;;;;;15.30;75.69;101366.59;5014170;28;20384;-96
2022/10/10 09:33:48;;;;;;;10.73;4.85;;;;;;;15.41;74.92;101363.00;5013918;28;20040;-93
2022/10/10 09:36:18;;;;;;;13.95;5.22;;;;;;;15.49;75.04;101361.38;5013257;28;20029;-95
2022/10/10 09:38:51;;;;;;;12.95;5.50;;;;;;;15.53;74.71;101365.44;5013996;28;20060;-94
2022/10/10 09:41:28;;;;;;;;;;;;;;;15.71;77.56;101364.84;5031013;28;20029;-94
2022/10/10 09:44:00;;;;;;;14.52;5.53;;;;;;;15.84;74.71;101366.28;5031036;28;20032;-93
2022/10/10 09:46:26;;;;;;;13.18;4.97;;;;;;;15.95;73.60;101363.53;5030191;28;20029;-94
2022/10/10 09:48:53;;;;;;;10.70;5.00;;;;;;;16.13;72.42;101371.69;5030537;28;20079;-93
2022/10/10 09:51:19;;;;;;;9.32;4.80;;;;;;;16.12;72.82;101375.31;5027624;28;20017;-93
2022/10/10 09:53:47;;;;;;;9.82;4.78;;;;;;;16.10;72.12;101374.63;5019939;28;20071;-93
2022/10/10 09:56:24;;;;;;;12.35;4.68;;;;;;;16.11;73.36;101381.59;5024739;28;20485;-92
2022/10/10 09:58:52;;;;;;;9.38;4.75;;;;;;;16.10;72.34;101385.25;5031480;28;20037;-94
2022/10/10 10:01:32;;;;;;;9.60;4.38;;;;;;;16.03;72.91;101381.44;5026550;28;20032;-94
2022/10/10 10:04:18;;;;;;;9.45;4.32;;;;;;;16.07;74.09;101377.56;5032056;28;20088;-94
2022/10/10 10:06:47;;;;;;;10.90;4.90;;;;;;;15.97;72.74;101381.97;5019573;28;20037;-94
2022/10/10 10:09:16;;;;;;;13.68;4.75;;;;;;;15.94;72.99;101382.25;5031336;28;20129;-95
2022/10/10 10:11:44;;;;;;;9.40;4.72;;;;;;;15.89;72.14;101389.78;5027632;28;20128;-94
2022/10/10 10:14:29;;;;;;;11.10;4.80;;;;;;;15.86;74.11;101382.09;5019713;28;20036;-94
2022/10/10 10:17:05;;;;;;;9.77;4.70;;;;;;;15.87;73.65;101379.28;5015010;28;20045;-93
2022/10/10 10:19:32;;;;;;;13.82;5.05;;;;;;;15.84;72.13;101381.38;5032049;28;20072;-94
2022/10/10 10:21:58;;;;;;;10.77;5.05;;;;;;;15.76;73.13;101381.22;5018557;28;20017;-93
2022/10/10 10:24:35;;;;;;;13.48;5.32;;;;;;;15.77;73.40;101380.25;5025970;28;20018;-96
2022/10/10 10:27:09;;;;;;;10.52;5.25;;;;;;;15.90;73.65;101386.13;5002969;28;20362;-94
2022/10/10 10:29:35;;;;;;;15.43;5.40;;;;;;;16.05;73.78;101376.84;5023491;28;20087;-94
2022/10/10 10:32:16;;;;;;;11.32;5.20;;;;;;;16.11;73.53;101384.25;4999464;28;20018;-94
2022/10/10 10:35:10;;;;;;;12.48;5.72;;;;;;;16.27;74.08;101394.34;5024207;28;20036;-94
2022/10/10 10:37:45;;;;;;;13.18;5.10;;;;;;;16.45;74.33;101386.56;4984082;28;20064;-94
2022/10/10 10:40:33;;;;;;;13.00;5.10;;;;;;;16.70;71.39;101388.69;5031652;28;20113;-96
2022/10/10 10:43:01;;;;;;;14.02;5.10;;;;;;;16.69;70.06;101392.31;5015239;28;20497;-94
2022/10/10 10:45:49;;;;;;;13.57;4.95;;;;;;;16.66;70.34;101405.91;5020780;28;20420;-96
2022/10/10 10:48:23;;;;;;;9.57;4.45;;;;;;;16.65;71.25;101400.69;5008674;28;20492;-94
2022/10/10 10:50:59;;;;;;;10.55;4.70;;;;;;;16.70;71.21;101407.28;5030298;28;20061;-93
2022/10/10 10:53:43;;;;;;;12.25;4.95;;;;;;;16.80;70.71;101410.78;5031824;28;20125;-94
2022/10/10 10:56:30;;;;;;;11.35;4.88;;;;;;;16.87;71.09;101417.25;5023953;28;20064;-94
2022/10/10 10:59:17;;;;;;;16.25;4.78;;;;;;;16.91;69.67;101409.81;5021438;28;20734;-93
2022/10/10 11:01:57;;;;;;;16.92;4.65;;;;;;;16.90;70.36;101414.31;5030607;28;20389;-93
2022/10/10 11:04:34;;;;;;;12.52;4.68;;;;;;;17.05;70.15;101421.84;5020620;28;20025;-95
2022/10/10 11:07:27;;;;;;;15.15;5.22;;;;;;;17.11;70.67;101429.25;5001976;28;20589;-95
2022/10/10 11:10:11;;;;;;;8.70;4.75;;;;;;;17.11;70.23;101426.59;5010167;28;20050;-94
2022/10/10 11:13:11;;;;;;;11.75;5.00;;;;;;;17.08;70.83;101427.72;5012306;28;20030;-94
2022/10/10 11:16:14;;;;;;;11.50;5.25;;;;;;;17.11;71.10;101434.56;5011469;28;20490;-96
2022/10/10 11:19:09;;;;;;;11.35;5.03;;;;;;;17.12;71.31;101430.94;4955561;28;20762;-96
2022/10/10 11:21:42;;;;;;;13.50;4.93;;;;;;;17.10;70.42;101435.53;4995199;28;20031;-93
2022/10/10 11:24:23;;;;;;;14.70;4.63;;;;;;;17.36;71.27;101439.31;5011179;28;20049;-93
2022/10/10 11:26:54;;;;;;;13.73;5.32;;;;;;;17.45;69.25;101435.78;5012473;28;20471;-96
2022/10/10 11:29:28;;;;;;;12.20;5.32;;;;;;;17.61;69.09;101442.31;5013209;28;20122;-93
2022/10/10 11:32:09;;;;;;;10.52;4.68;;;;;;;17.63;68.20;101435.88;5033411;28;20034;-96
2022/10/10 11:34:48;;;;;;;11.48;4.68;;;;;;;17.62;67.37;101430.72;5034290;28;20022;-94
2022/10/10 11:37:18;;;;;;;17.02;4.53;;;;;;;17.60;67.13;101435.31;5033968;28;20022;-93
2022/10/10 11:40:36;;;;;;;12.95;4.22;;;;;;;17.77;68.60;101429.28;5026515;28;20036;-94